Time;durP1;ratioP1;P1;durP2;ratioP2;P2;SDS_P1;SDS_P2;PMS_P1;PMS_P2;Temp;Humidity;BMP_temperature;BMP_pressure;BME280_temperature;BME280_humidity;BME280_pressure;Samples;Min_cycle;Max_cycle;Signal;HPM_P1;HPM_P2
2021/12/11 00:01:40;;;;;;;20.70;12.38;;;1.90;99.90;;;;;;5037553;28;20060;-43
2021/12/11 00:04:11;;;;;;;20.98;12.70;;;1.90;99.90;;;;;;5047186;28;20075;-43
2021/12/11 00:06:42;;;;;;;18.53;11.23;;;1.90;99.90;;;;;;5036951;28;20132;-42
2021/12/11 00:09:19;;;;;;;18.85;10.32;;;1.90;99.90;;;;;;5047070;28;20311;-43
2021/12/11 00:11:49;;;;;;;16.02;10.48;;;1.90;99.90;;;;;;5037350;28;20067;-43
2021/12/11 00:14:15;;;;;;;18.00;11.98;;;1.90;99.90;;;;;;5043653;28;20021;-43
2021/12/11 00:16:43;;;;;;;20.65;11.95;;;1.90;99.90;;;;;;5036814;28;20037;-43
2021/12/11 00:19:23;;;;;;;16.27;11.40;;;1.90;99.90;;;;;;5048010;28;20053;-42
2021/12/11 00:21:50;;;;;;;14.32;10.65;;;1.90;99.90;;;;;;5035293;28;20033;-43
2021/12/11 00:24:20;;;;;;;13.05;9.80;;;1.90;99.90;;;;;;5028852;28;20032;-43
2021/12/11 00:26:59;;;;;;;14.48;10.07;;;1.90;99.90;;;;;;5040145;28;20053;-43
2021/12/11 00:29:27;;;;;;;14.25;9.38;;;1.90;99.90;;;;;;5028167;28;20021;-43
2021/12/11 00:32:04;;;;;;;18.85;11.05;;;1.80;99.90;;;;;;5040725;28;20028;-43
2021/12/11 00:34:30;;;;;;;17.98;11.57;;;1.80;99.90;;;;;;5027521;28;20033;-43
2021/12/11 00:36:59;;;;;;;16.58;11.88;;;1.80;99.90;;;;;;5040048;28;20036;-43
2021/12/11 00:39:26;;;;;;;18.38;10.93;;;1.80;99.90;;;;;;5028271;28;20366;-42
2021/12/11 00:41:55;;;;;;;15.75;10.25;;;1.80;99.90;;;;;;5039154;28;20031;-42
2021/12/11 00:44:40;;;;;;;17.55;12.27;;;1.80;99.90;;;;;;5028145;28;20516;-43
2021/12/11 00:47:09;;;;;;;13.98;9.90;;;1.80;99.90;;;;;;5040480;28;20025;-42
2021/12/11 00:49:43;;;;;;;18.63;11.30;;;1.80;99.90;;;;;;5027187;28;20115;-42
2021/12/11 00:52:12;;;;;;;18.40;12.65;;;1.80;99.90;;;;;;5039553;28;20064;-42
2021/12/11 00:54:43;;;;;;;21.38;12.75;;;1.70;99.90;;;;;;5007881;28;20030;-43
2021/12/11 00:57:14;;;;;;;16.48;11.50;;;1.80;99.90;;;;;;5032736;28;20059;-43
2021/12/11 00:59:39;;;;;;;14.45;10.77;;;1.70;99.90;;;;;;5028635;28;20193;-43
2021/12/11 01:02:06;;;;;;;14.40;10.90;;;1.70;99.90;;;;;;5035645;28;20448;-43
2021/12/11 01:04:41;;;;;;;13.95;9.85;;;1.70;99.90;;;;;;5031195;28;20465;-43
2021/12/11 01:07:18;;;;;;;13.98;9.35;;;1.70;99.90;;;;;;5034354;28;20075;-42
2021/12/11 01:09:49;;;;;;;12.13;9.38;;;1.60;99.90;;;;;;5029973;28;20473;-43
2021/12/11 01:12:21;;;;;;;15.45;9.52;;;1.60;99.90;;;;;;5034738;28;20017;-43
2021/12/11 01:14:54;;;;;;;14.82;9.20;;;1.60;99.90;;;;;;5031825;28;20055;-44
2021/12/11 01:17:22;;;;;;;13.15;9.63;;;1.60;99.90;;;;;;5033455;28;20540;-42
2021/12/11 01:19:56;;;;;;;15.95;9.75;;;1.50;99.90;;;;;;5032295;28;20053;-42
2021/12/11 01:25:04;;;;;;;14.43;8.98;;;1.60;99.90;;;;;;5032599;28;20029;-42
2021/12/11 01:27:30;;;;;;;13.23;8.75;;;1.60;99.90;;;;;;5031665;28;20025;-43
2021/12/11 01:29:58;;;;;;;13.80;9.88;;;1.70;99.90;;;;;;5034790;28;20033;-42
2021/12/11 01:32:27;;;;;;;13.70;9.30;;;1.70;99.90;;;;;;5029325;28;20030;-43
2021/12/11 01:34:53;;;;;;;12.18;8.77;;;1.70;99.90;;;;;;5035349;28;20026;-43
2021/12/11 01:37:19;;;;;;;11.68;8.52;;;1.70;99.90;;;;;;5027742;28;20021;-42
2021/12/11 01:39:51;;;;;;;15.68;8.65;;;1.80;99.90;;;;;;5038113;28;20040;-43
2021/12/11 01:42:25;;;;;;;13.02;9.32;;;1.80;99.90;;;;;;5028465;28;20075;-43
2021/12/11 01:44:53;;;;;;;13.23;9.80;;;1.70;99.90;;;;;;5037508;28;20224;-43
2021/12/11 01:47:25;;;;;;;15.07;10.15;;;1.70;99.90;;;;;;5028908;28;20036;-43
2021/12/11 01:49:54;;;;;;;13.80;9.13;;;1.70;99.90;;;;;;5038053;28;20059;-42
2021/12/11 01:52:32;;;;;;;14.18;9.73;;;1.70;99.90;;;;;;5026729;28;20191;-43
2021/12/11 01:55:00;;;;;;;18.38;9.75;;;1.70;99.90;;;;;;5034782;28;20038;-42
2021/12/11 01:57:28;;;;;;;13.15;9.52;;;1.70;99.90;;;;;;5027355;28;20025;-44
2021/12/11 02:00:00;;;;;;;12.90;9.40;;;1.70;99.90;;;;;;5038274;28;20387;-43
2021/12/11 02:02:31;;;;;;;13.95;9.32;;;1.70;99.90;;;;;;5026844;28;20116;-43
2021/12/11 02:04:57;;;;;;;16.25;10.43;;;1.70;99.90;;;;;;5039087;28;20033;-44
2021/12/11 02:07:30;;;;;;;15.90;10.85;;;1.70;99.90;;;;;;5026169;28;20037;-44
2021/12/11 02:09:59;;;;;;;16.30;9.85;;;1.60;99.90;;;;;;5038681;28;20563;-43
2021/12/11 02:12:34;;;;;;;15.65;10.85;;;1.60;99.90;;;;;;5026471;28;20056;-43
2021/12/11 02:15:03;;;;;;;19.63;11.93;;;1.60;99.90;;;;;;5038726;28;20465;-43
2021/12/11 02:17:44;;;;;;;19.30;10.77;;;1.60;99.90;;;;;;5026907;28;20033;-43
2021/12/11 02:20:13;;;;;;;16.00;11.10;;;1.50;99.90;;;;;;5037455;28;20064;-42
2021/12/11 02:22:43;;;;;;;15.65;10.45;;;1.60;99.90;;;;;;5027116;28;20119;-42
2021/12/11 02:25:15;;;;;;;15.23;10.18;;;1.60;99.90;;;;;;5037602;28;20029;-43
2021/12/11 02:28:16;;;;;;;17.58;11.40;;;1.60;99.90;;;;;;5026230;28;20049;-43
2021/12/11 02:31:00;;;;;;;16.08;10.82;;;1.60;99.90;;;;;;5038869;28;20609;-44
2021/12/11 02:33:38;;;;;;;13.73;9.70;;;1.60;99.90;;;;;;5026258;28;20021;-41
2021/12/11 02:36:11;;;;;;;14.98;10.30;;;1.60;99.90;;;;;;5038841;28;20025;-42
2021/12/11 02:38:55;;;;;;;15.30;11.05;;;1.60;99.90;;;;;;5026635;28;20534;-42
2021/12/11 02:41:31;;;;;;;14.77;10.10;;;1.60;99.90;;;;;;5034110;28;20036;-42
2021/12/11 02:44:02;;;;;;;14.20;10.38;;;1.50;99.90;;;;;;5046117;28;20033;-44
2021/12/11 02:46:34;;;;;;;14.35;10.40;;;1.50;99.90;;;;;;5035204;28;20100;-43
2021/12/11 02:49:14;;;;;;;12.95;9.80;;;1.40;99.90;;;;;;5049981;28;20037;-42
2021/12/11 02:51:46;;;;;;;14.10;10.35;;;1.40;99.90;;;;;;5036850;28;20033;-44
2021/12/11 02:54:31;;;;;;;14.63;10.35;;;1.30;99.90;;;;;;5043659;28;20030;-42
2021/12/11 02:57:12;;;;;;;16.08;10.88;;;1.30;99.90;;;;;;5038338;28;20023;-42
2021/12/11 02:59:43;;;;;;;14.02;10.00;;;1.30;99.90;;;;;;5049026;28;20033;-43
2021/12/11 03:02:23;;;;;;;18.10;10.35;;;1.20;99.90;;;;;;5036284;28;20564;-43
2021/12/11 03:04:53;;;;;;;16.15;10.30;;;1.20;99.90;;;;;;5030582;28;20028;-43
2021/12/11 03:07:34;;;;;;;15.65;11.10;;;1.20;99.90;;;;;;5037510;28;20030;-44
2021/12/11 03:10:00;;;;;;;14.45;10.57;;;1.20;99.90;;;;;;5030050;28;20033;-43
2021/12/11 03:12:26;;;;;;;15.40;10.30;;;1.20;99.90;;;;;;5040644;28;20477;-43
2021/12/11 03:14:52;;;;;;;15.23;10.77;;;1.10;99.90;;;;;;5029623;28;20022;-42
2021/12/11 03:17:20;;;;;;;15.45;11.15;;;1.20;99.90;;;;;;5041862;28;20028;-43
2021/12/11 03:19:46;;;;;;;14.98;10.52;;;1.20;99.90;;;;;;5028529;28;20056;-48
2021/12/11 03:22:20;;;;;;;16.45;10.50;;;1.20;99.90;;;;;;5042524;28;20033;-44
2021/12/11 03:24:47;;;;;;;16.70;10.55;;;1.20;99.90;;;;;;5028435;28;20032;-42
2021/12/11 03:27:13;;;;;;;13.00;10.77;;;1.30;99.90;;;;;;5040849;28;20037;-43
2021/12/11 03:29:40;;;;;;;16.13;10.30;;;1.30;99.90;;;;;;5029808;28;20013;-43
2021/12/11 03:32:09;;;;;;;15.10;10.90;;;1.30;99.90;;;;;;5037897;28;20736;-43
2021/12/11 03:34:35;;;;;;;15.25;10.38;;;1.30;99.90;;;;;;5032528;28;20080;-42
2021/12/11 03:37:03;;;;;;;14.70;10.13;;;1.30;99.90;;;;;;5035153;28;20024;-43
2021/12/11 03:39:33;;;;;;;13.93;10.52;;;1.30;99.90;;;;;;5034410;28;20120;-43
2021/12/11 03:42:02;;;;;;;17.45;10.43;;;1.30;99.90;;;;;;5034376;28;20040;-43
2021/12/11 03:44:32;;;;;;;15.55;10.10;;;1.30;99.90;;;;;;5035157;28;20645;-43
2021/12/11 03:47:03;;;;;;;14.65;10.43;;;1.30;99.90;;;;;;5032438;28;20032;-42
2021/12/11 03:49:29;;;;;;;16.23;9.73;;;1.30;99.90;;;;;;5036935;28;20362;-43
2021/12/11 03:51:55;;;;;;;16.58;9.82;;;1.20;99.90;;;;;;5030311;28;20027;-43
2021/12/11 03:54:28;;;;;;;16.05;10.35;;;1.20;99.90;;;;;;5039858;28;20033;-43
2021/12/11 03:56:54;;;;;;;14.90;9.55;;;1.20;99.90;;;;;;5029144;28;20071;-44
2021/12/11 03:59:20;;;;;;;15.35;10.52;;;1.10;99.90;;;;;;5039812;28;20104;-43
2021/12/11 04:01:50;;;;;;;15.02;10.70;;;1.00;99.90;;;;;;5029613;28;20116;-43
2021/12/11 04:04:22;;;;;;;16.95;11.65;;;0.90;99.90;;;;;;5037280;28;20135;-43
2021/12/11 04:06:48;;;;;;;15.15;10.63;;;0.90;99.90;;;;;;5027759;28;20515;-43
2021/12/11 04:09:16;;;;;;;13.95;10.27;;;0.80;99.90;;;;;;5040857;28;20037;-43
2021/12/11 04:11:42;;;;;;;16.80;10.68;;;0.90;99.90;;;;;;5029044;28;20056;-43
2021/12/11 04:14:13;;;;;;;15.40;10.93;;;0.80;99.90;;;;;;5040217;28;20036;-42
2021/12/11 04:16:40;;;;;;;15.85;10.80;;;0.80;99.90;;;;;;5028640;28;20056;-43
2021/12/11 04:19:07;;;;;;;15.15;11.10;;;0.80;99.90;;;;;;5039808;28;20513;-43
2021/12/11 04:21:33;;;;;;;18.27;11.18;;;0.80;99.90;;;;;;5028207;28;20037;-43
2021/12/11 04:24:00;;;;;;;16.70;11.25;;;0.80;99.90;;;;;;5038387;28;20021;-43
2021/12/11 04:26:26;;;;;;;18.13;11.27;;;0.90;99.90;;;;;;5029369;28;20363;-45
2021/12/11 04:28:52;;;;;;;20.02;10.57;;;0.90;99.90;;;;;;5036016;28;20094;-43
2021/12/11 04:31:28;;;;;;;15.13;10.90;;;0.90;99.90;;;;;;5033130;28;20469;-43
2021/12/11 04:33:57;;;;;;;18.75;11.45;;;0.90;99.90;;;;;;5034004;28;20028;-43
2021/12/11 04:36:29;;;;;;;13.98;10.07;;;0.90;99.90;;;;;;5033444;28;20041;-43
2021/12/11 04:38:56;;;;;;;15.07;10.43;;;1.00;99.90;;;;;;5033297;28;20381;-43
2021/12/11 04:41:29;;;;;;;14.73;11.10;;;1.00;99.90;;;;;;5034607;28;20045;-43
2021/12/11 04:43:55;;;;;;;;;;;1.10;99.90;;;;;;5032079;28;20493;-42
2021/12/11 04:46:21;;;;;;;14.90;10.18;;;1.20;99.90;;;;;;5036641;28;19978;-44
2021/12/11 04:49:01;;;;;;;15.02;10.43;;;1.20;99.90;;;;;;5028164;28;20468;-43
2021/12/11 04:51:37;;;;;;;15.40;9.98;;;1.20;99.90;;;;;;5036927;28;20053;-44
2021/12/11 04:57:10;;;;;;;17.10;9.90;;;1.30;99.90;;;;;;5037567;28;20481;-43
2021/12/11 04:59:53;;;;;;;16.83;10.45;;;1.40;99.90;;;;;;5032559;28;20025;-44
2021/12/11 05:05:02;;;;;;;17.27;10.38;;;1.50;99.90;;;;;;5033238;28;20000;-43
2021/12/11 05:10:18;;;;;;;14.93;9.68;;;1.50;99.90;;;;;;5032117;28;20459;-43
2021/12/11 05:12:47;;;;;;;16.33;10.30;;;1.60;99.90;;;;;;5031702;28;20083;-42
2021/12/11 05:15:26;;;;;;;17.83;10.82;;;1.60;99.90;;;;;;5032811;28;20025;-44
2021/12/11 05:17:52;;;;;;;18.80;10.48;;;1.70;99.90;;;;;;5032190;28;20025;-43
2021/12/11 05:20:20;;;;;;;19.08;10.38;;;1.70;99.90;;;;;;5032359;28;20041;-44
2021/12/11 05:22:46;;;;;;;18.48;11.52;;;1.70;99.90;;;;;;5032490;28;20040;-42
2021/12/11 05:25:14;;;;;;;19.83;11.50;;;1.80;99.90;;;;;;5031039;28;20021;-45
2021/12/11 05:27:42;;;;;;;20.27;11.73;;;1.80;99.90;;;;;;5036045;28;20251;-44
2021/12/11 05:30:15;;;;;;;22.58;10.90;;;1.80;99.90;;;;;;5027856;28;20715;-42
2021/12/11 05:32:41;;;;;;;19.60;10.68;;;1.80;99.90;;;;;;5037029;28;20802;-42
2021/12/11 05:35:08;;;;;;;21.95;11.10;;;1.80;99.90;;;;;;5045249;28;20028;-43
2021/12/11 05:37:34;;;;;;;18.17;11.63;;;1.80;99.90;;;;;;5035049;28;20029;-44
2021/12/11 05:39:59;;;;;;;19.08;11.02;;;1.80;99.90;;;;;;5046080;28;20033;-43
2021/12/11 05:42:28;;;;;;;24.33;10.95;;;1.90;99.90;;;;;;5035249;28;20472;-43
2021/12/11 05:44:53;;;;;;;20.65;11.68;;;1.90;99.90;;;;;;5046716;28;20025;-44
2021/12/11 05:47:20;;;;;;;15.90;10.95;;;1.90;99.90;;;;;;5034157;28;20029;-44
2021/12/11 05:49:46;;;;;;;17.15;10.90;;;1.90;99.90;;;;;;5046654;28;20021;-43
2021/12/11 05:52:13;;;;;;;18.33;11.57;;;1.90;99.90;;;;;;5033942;28;20479;-43
2021/12/11 05:54:41;;;;;;;17.25;10.68;;;2.00;99.90;;;;;;5046931;28;20431;-43
2021/12/11 05:57:11;;;;;;;15.40;10.70;;;2.00;99.90;;;;;;5036400;28;20034;-43
2021/12/11 05:59:38;;;;;;;20.65;10.77;;;2.00;99.90;;;;;;5044456;28;20551;-42
2021/12/11 06:02:07;;;;;;;19.05;11.20;;;2.10;99.90;;;;;;5037714;28;20492;-43
2021/12/11 06:04:35;;;;;;;17.33;10.82;;;2.10;99.90;;;;;;5042993;28;20028;-45
2021/12/11 06:07:03;;;;;;;17.92;11.27;;;2.10;99.90;;;;;;5039413;28;20017;-43
2021/12/11 06:09:29;;;;;;;17.55;11.82;;;2.10;99.90;;;;;;5041251;28;20056;-43
2021/12/11 06:11:59;;;;;;;18.40;11.73;;;2.20;99.90;;;;;;5041065;28;20053;-43
2021/12/11 06:14:25;;;;;;;20.35;13.05;;;2.20;99.90;;;;;;5038945;28;20021;-43
2021/12/11 06:16:54;;;;;;;17.42;11.80;;;2.20;99.90;;;;;;5043881;28;20150;-43
2021/12/11 06:19:21;;;;;;;15.95;11.35;;;2.20;99.90;;;;;;5036656;28;20858;-43
2021/12/11 06:21:48;;;;;;;17.10;11.50;;;2.30;99.90;;;;;;5047358;28;20392;-43
2021/12/11 06:24:14;;;;;;;17.10;10.73;;;2.30;99.90;;;;;;5039553;28;20017;-44
2021/12/11 06:26:41;;;;;;;17.13;11.68;;;2.30;99.90;;;;;;5048572;28;20033;-43
2021/12/11 06:29:06;;;;;;;14.18;10.77;;;2.30;99.90;;;;;;5039220;28;20028;-45
2021/12/11 06:31:32;;;;;;;20.50;12.98;;;2.30;99.90;;;;;;5050393;28;20488;-42
2021/12/11 06:33:57;;;;;;;19.38;12.50;;;2.30;99.90;;;;;;5036736;28;20025;-43
2021/12/11 06:36:27;;;;;;;18.10;12.32;;;2.30;99.90;;;;;;5050101;28;20039;-44
2021/12/11 06:38:57;;;;;;;16.77;11.20;;;2.30;99.90;;;;;;5037551;28;20091;-43
2021/12/11 06:41:27;;;;;;;16.48;11.70;;;2.30;99.90;;;;;;5049880;28;20052;-44
2021/12/11 06:43:54;;;;;;;14.98;10.65;;;2.40;99.90;;;;;;5037596;28;20111;-42
2021/12/11 06:46:19;;;;;;;15.38;10.85;;;2.40;99.90;;;;;;5049953;28;20312;-43
2021/12/11 06:48:45;;;;;;;14.65;10.63;;;2.40;99.90;;;;;;5039302;28;20509;-44
2021/12/11 06:51:10;;;;;;;16.02;9.85;;;2.40;99.90;;;;;;5047279;28;20039;-43
2021/12/11 06:53:42;;;;;;;12.40;9.20;;;2.40;99.90;;;;;;5042680;28;20105;-43
2021/12/11 06:56:11;;;;;;;12.23;9.20;;;2.40;99.90;;;;;;5045560;28;20107;-43
2021/12/11 06:58:38;;;;;;;13.05;9.25;;;2.40;99.90;;;;;;5043943;28;20420;-42
2021/12/11 07:01:06;;;;;;;12.25;9.20;;;2.40;99.90;;;;;;5042015;28;20871;-44
2021/12/11 07:03:31;;;;;;;13.30;9.40;;;2.50;99.90;;;;;;5046109;28;20033;-42
2021/12/11 07:05:57;;;;;;;15.38;10.05;;;2.50;99.90;;;;;;5040761;28;20099;-43
2021/12/11 07:08:26;;;;;;;13.20;9.90;;;2.50;99.90;;;;;;5047137;28;20044;-46
2021/12/11 07:10:51;;;;;;;15.10;10.20;;;2.50;99.90;;;;;;5038454;28;20056;-43
2021/12/11 07:13:17;;;;;;;14.85;10.50;;;2.50;99.90;;;;;;5048045;28;20142;-43
2021/12/11 07:15:42;;;;;;;14.45;10.25;;;2.50;99.90;;;;;;5037662;28;20075;-42
2021/12/11 07:18:08;;;;;;;13.75;10.15;;;2.50;99.90;;;;;;5049364;28;20484;-43
2021/12/11 07:20:34;;;;;;;15.57;9.68;;;2.60;99.90;;;;;;5041203;28;20374;-43
2021/12/11 07:23:00;;;;;;;15.43;10.63;;;2.60;99.90;;;;;;5029299;28;20039;-44
2021/12/11 07:25:35;;;;;;;13.70;10.60;;;2.60;99.90;;;;;;5042009;28;20108;-44
2021/12/11 07:28:03;;;;;;;16.73;11.20;;;2.60;99.90;;;;;;5029330;28;20475;-43
2021/12/11 07:30:32;;;;;;;17.45;11.73;;;2.60;99.90;;;;;;5041184;28;20064;-43
2021/12/11 07:33:00;;;;;;;18.95;12.82;;;2.60;99.90;;;;;;5008449;28;20118;-43
2021/12/11 07:35:27;;;;;;;18.40;12.52;;;2.60;99.90;;;;;;5034685;28;20025;-43
2021/12/11 07:37:55;;;;;;;18.08;12.30;;;2.60;99.90;;;;;;5027293;28;20036;-43
2021/12/11 07:40:26;;;;;;;18.67;11.15;;;2.60;99.90;;;;;;5036360;28;20051;-44
2021/12/11 07:42:52;;;;;;;15.95;11.10;;;2.70;99.90;;;;;;5030624;28;20025;-44
2021/12/11 07:45:19;;;;;;;19.80;12.55;;;2.70;99.90;;;;;;5035738;28;20025;-43
2021/12/11 07:47:44;;;;;;;17.05;11.40;;;2.70;99.90;;;;;;5033883;28;20667;-44
2021/12/11 07:50:11;;;;;;;17.17;11.70;;;2.70;99.90;;;;;;5031459;28;20034;-43
2021/12/11 07:52:38;;;;;;;16.15;11.18;;;2.70;99.90;;;;;;5036296;28;20029;-44
2021/12/11 07:55:04;;;;;;;15.07;11.45;;;2.80;99.90;;;;;;5036690;28;20116;-45
2021/12/11 07:57:30;;;;;;;15.85;11.65;;;2.80;99.90;;;;;;5037846;28;20053;-43
2021/12/11 07:59:55;;;;;;;15.90;10.88;;;2.80;99.90;;;;;;5029729;28;20052;-43
2021/12/11 08:02:21;;;;;;;20.33;12.85;;;2.80;99.90;;;;;;5038635;28;20638;-43
2021/12/11 08:04:46;;;;;;;22.63;14.52;;;2.80;99.90;;;;;;5027405;28;20114;-43
2021/12/11 08:07:12;;;;;;;21.27;14.38;;;2.90;99.90;;;;;;5040253;28;20021;-43
2021/12/11 08:09:38;;;;;;;23.77;15.25;;;2.90;99.90;;;;;;5028400;28;20044;-43
2021/12/11 08:12:04;;;;;;;22.63;14.15;;;2.80;99.90;;;;;;5039592;28;20052;-44
2021/12/11 08:14:30;;;;;;;22.63;15.48;;;2.90;99.90;;;;;;5027716;28;20082;-43
2021/12/11 08:16:58;;;;;;;24.33;16.08;;;2.90;99.90;;;;;;5039216;28;20024;-43
2021/12/11 08:19:26;;;;;;;17.95;13.60;;;2.90;99.90;;;;;;5027876;28;20045;-42
2021/12/11 08:21:56;;;;;;;20.45;14.30;;;2.90;99.90;;;;;;5037050;28;20033;-44
2021/12/11 08:24:23;;;;;;;20.17;14.07;;;2.90;99.90;;;;;;5030291;28;20037;-44
2021/12/11 08:26:52;;;;;;;19.02;12.82;;;3.00;99.90;;;;;;5034560;28;20608;-43
2021/12/11 08:29:18;;;;;;;19.63;12.52;;;3.00;99.90;;;;;;5031823;28;20025;-43
2021/12/11 08:31:48;;;;;;;21.10;13.85;;;3.00;99.90;;;;;;5031686;28;20060;-43
2021/12/11 08:34:14;;;;;;;25.23;15.57;;;3.00;99.90;;;;;;5032466;28;20063;-44
2021/12/11 08:36:41;;;;;;;22.98;14.80;;;3.10;99.90;;;;;;5032216;28;20124;-43
2021/12/11 08:39:09;;;;;;;20.70;14.52;;;3.10;99.90;;;;;;5035836;28;20057;-42
2021/12/11 08:41:38;;;;;;;18.42;12.55;;;3.10;99.90;;;;;;5029664;28;20033;-42
2021/12/11 08:44:10;;;;;;;21.17;13.90;;;3.10;99.90;;;;;;5037986;28;20037;-42
2021/12/11 08:46:37;;;;;;;19.55;13.68;;;3.10;99.90;;;;;;5028744;28;20074;-43
2021/12/11 08:49:09;;;;;;;21.05;13.98;;;3.20;99.90;;;;;;5038985;28;20432;-42
2021/12/11 08:51:51;;;;;;;22.80;13.32;;;3.20;99.90;;;;;;5029165;28;20053;-43
2021/12/11 08:54:20;;;;;;;22.17;13.57;;;3.30;99.90;;;;;;5038628;28;20039;-42
2021/12/11 08:56:46;;;;;;;20.50;13.38;;;3.30;99.90;;;;;;5028761;28;20021;-42
2021/12/11 08:59:15;;;;;;;19.20;12.60;;;3.30;99.90;;;;;;5039033;28;20029;-44
2021/12/11 09:01:48;;;;;;;18.88;12.98;;;3.40;99.90;;;;;;5026374;28;20047;-44
2021/12/11 09:04:24;;;;;;;17.65;13.25;;;3.40;99.90;;;;;;5035473;28;20032;-44
2021/12/11 09:06:56;;;;;;;21.02;14.18;;;3.40;99.90;;;;;;5027721;28;20025;-43
2021/12/11 09:09:30;;;;;;;21.48;14.90;;;3.40;99.90;;;;;;5039888;28;20112;-43
2021/12/11 09:12:30;;;;;;;24.63;15.45;;;3.40;99.90;;;;;;5027372;28;20136;-44
2021/12/11 09:15:05;;;;;;;19.60;13.63;;;3.30;99.90;;;;;;5037090;28;20091;-43
2021/12/11 09:17:36;;;;;;;21.80;13.98;;;3.20;99.90;;;;;;5028573;28;20029;-44
2021/12/11 09:20:12;;;;;;;20.50;14.27;;;3.10;99.90;;;;;;5038535;28;20112;-43
2021/12/11 09:22:44;;;;;;;19.73;12.75;;;3.10;99.90;;;;;;5028440;28;20107;-43
2021/12/11 09:25:19;;;;;;;;;;;3.10;99.90;;;;;;5038998;28;20077;-43
2021/12/11 09:27:53;;;;;;;19.33;12.57;;;3.10;99.90;;;;;;5028179;28;20007;-43
2021/12/11 09:30:41;;;;;;;18.95;12.38;;;3.10;99.90;;;;;;5038308;28;20108;-43
2021/12/11 09:33:21;;;;;;;18.15;12.35;;;3.20;99.90;;;;;;5028983;28;20024;-43
2021/12/11 09:35:51;;;;;;;21.90;12.50;;;3.30;99.90;;;;;;5025532;28;20028;-42
2021/12/11 09:38:22;;;;;;;17.95;12.63;;;3.30;99.90;;;;;;5045725;28;20021;-43
2021/12/11 09:40:54;;;;;;;19.52;13.00;;;3.40;99.90;;;;;;5036070;28;20064;-43
2021/12/11 09:43:48;;;;;;;19.87;13.13;;;3.50;99.90;;;;;;5045118;28;20140;-43
2021/12/11 09:46:23;;;;;;;16.65;11.85;;;3.60;99.90;;;;;;5028423;28;20682;-44
2021/12/11 09:48:49;;;;;;;19.40;12.27;;;3.70;99.90;;;;;;5045011;28;20468;-44
2021/12/11 09:51:20;;;;;;;19.63;12.32;;;3.70;99.90;;;;;;5035964;28;20018;-42
2021/12/11 09:53:52;;;;;;;18.48;11.85;;;3.80;99.90;;;;;;5045327;28;20021;-42
2021/12/11 09:56:43;;;;;;;17.75;12.32;;;3.90;99.90;;;;;;5034928;28;20025;-42
2021/12/11 09:59:15;;;;;;;21.67;13.60;;;3.90;99.90;;;;;;5045134;28;20021;-43
2021/12/11 10:01:43;;;;;;;17.33;12.80;;;4.00;99.90;;;;;;5036576;28;20894;-44
2021/12/11 10:04:19;;;;;;;20.88;12.98;;;4.00;99.90;;;;;;5044479;28;20028;-43
2021/12/11 10:09:28;;;;;;;17.60;12.52;;;4.10;99.90;;;;;;5039489;28;20568;-44
2021/12/11 10:12:05;;;;;;;18.23;12.00;;;4.20;99.90;;;;;;5036807;28;20026;-44
2021/12/11 10:14:39;;;;;;;18.27;12.98;;;4.20;99.90;;;;;;5028194;28;20017;-43
2021/12/11 10:17:11;;;;;;;19.50;12.20;;;4.30;99.90;;;;;;5035610;28;20067;-43
2021/12/11 10:19:39;;;;;;;20.10;13.27;;;4.30;99.90;;;;;;5031033;28;20037;-44
2021/12/11 10:22:17;;;;;;;19.65;12.48;;;4.40;99.90;;;;;;5030605;28;20072;-43
2021/12/11 10:24:44;;;;;;;18.77;12.88;;;4.40;99.90;;;;;;5025706;28;20063;-44
2021/12/11 10:27:18;;;;;;;17.15;11.85;;;4.50;99.90;;;;;;5026924;28;20376;-43
2021/12/11 10:29:45;;;;;;;18.67;12.77;;;4.50;99.90;;;;;;5027085;28;20017;-42
2021/12/11 10:32:16;;;;;;;17.58;12.73;;;4.60;99.90;;;;;;5027245;28;20060;-43
2021/12/11 10:34:45;;;;;;;26.88;12.45;;;4.60;99.90;;;;;;5025024;28;20020;-43
2021/12/11 10:37:16;;;;;;;27.48;13.95;;;4.70;99.90;;;;;;5027479;28;20059;-43
2021/12/11 10:39:46;;;;;;;22.83;13.65;;;4.70;99.90;;;;;;5025309;28;20067;-42
2021/12/11 10:42:13;;;;;;;21.58;13.82;;;4.70;99.90;;;;;;5030736;28;20128;-44
2021/12/11 10:44:45;;;;;;;31.00;14.93;;;4.70;99.90;;;;;;5026389;28;20523;-44
2021/12/11 10:47:18;;;;;;;22.15;13.73;;;4.80;99.90;;;;;;5038423;28;20044;-44
2021/12/11 10:49:46;;;;;;;27.23;13.57;;;4.80;99.90;;;;;;5026238;28;20548;-43
2021/12/11 10:52:22;;;;;;;35.45;14.50;;;4.80;99.90;;;;;;5038654;28;20025;-44
2021/12/11 10:54:50;;;;;;;24.73;13.88;;;4.80;99.90;;;;;;5005901;28;20593;-43
2021/12/11 10:57:18;;;;;;;22.13;14.07;;;4.80;99.90;;;;;;5034200;28;20037;-42
2021/12/11 10:59:49;;;;;;;26.48;13.55;;;4.80;99.90;;;;;;5026937;28;20111;-43
2021/12/11 11:02:31;;;;;;;27.13;14.45;;;4.80;99.90;;;;;;5036537;28;20098;-43
2021/12/11 11:05:08;;;;;;;28.15;13.95;;;4.80;99.90;;;;;;5025931;28;20680;-44
2021/12/11 11:07:34;;;;;;;23.55;15.00;;;4.80;99.90;;;;;;5035419;28;20037;-43
2021/12/11 11:10:03;;;;;;;28.77;16.38;;;4.80;99.90;;;;;;5048881;28;20032;-44
2021/12/11 11:12:30;;;;;;;24.75;15.65;;;4.80;99.90;;;;;;5040707;28;20025;-42
2021/12/11 11:14:57;;;;;;;42.25;16.38;;;4.70;99.90;;;;;;5045943;28;20041;-43
2021/12/11 11:17:27;;;;;;;42.97;14.95;;;4.80;99.90;;;;;;5042516;28;20030;-43
2021/12/11 11:19:53;;;;;;;23.08;12.57;;;4.70;99.90;;;;;;5044404;28;20049;-43
2021/12/11 11:22:24;;;;;;;25.75;14.02;;;4.80;99.90;;;;;;5044043;28;20041;-43
2021/12/11 11:24:56;;;;;;;41.60;14.68;;;4.80;99.90;;;;;;5042761;28;20024;-43
2021/12/11 11:27:22;;;;;;;27.80;14.38;;;4.80;99.90;;;;;;5045684;28;20152;-42
2021/12/11 11:29:48;;;;;;;23.27;14.63;;;4.90;99.90;;;;;;5039717;28;20104;-43
2021/12/11 11:32:31;;;;;;;26.42;14.57;;;5.00;99.90;;;;;;5047858;28;20017;-42
2021/12/11 11:35:03;;;;;;;16.92;13.45;;;5.00;99.90;;;;;;5040305;28;20028;-43
2021/12/11 11:37:32;;;;;;;21.40;15.32;;;5.00;99.90;;;;;;5047277;28;20104;-43
2021/12/11 11:39:58;;;;;;;36.30;16.27;;;5.00;99.90;;;;;;5038880;28;20025;-42
2021/12/11 11:42:24;;;;;;;35.13;15.15;;;4.90;99.90;;;;;;5046894;28;20045;-43
2021/12/11 11:44:50;;;;;;;76.00;14.90;;;4.90;99.90;;;;;;5038002;28;20115;-43
2021/12/11 11:47:18;;;;;;;22.13;13.45;;;4.90;99.90;;;;;;5048228;28;20029;-42
2021/12/11 11:49:44;;;;;;;22.05;13.40;;;4.90;99.90;;;;;;5039941;28;20025;-43
2021/12/11 11:52:14;;;;;;;23.10;13.07;;;5.00;99.90;;;;;;5029021;28;20025;-44
2021/12/11 11:54:43;;;;;;;33.75;13.18;;;5.00;99.90;;;;;;5040830;28;20171;-43
2021/12/11 11:57:28;;;;;;;25.45;13.30;;;5.10;99.90;;;;;;5028390;28;20481;-42
2021/12/11 11:59:56;;;;;;;26.65;13.07;;;5.10;99.90;;;;;;5041588;28;20102;-43
2021/12/11 12:02:26;;;;;;;26.50;12.18;;;5.20;99.90;;;;;;5028989;28;20057;-43
2021/12/11 12:04:54;;;;;;;22.67;12.50;;;5.20;99.90;;;;;;5040026;28;20373;-43
2021/12/11 12:07:26;;;;;;;21.92;12.35;;;5.30;99.90;;;;;;5029035;28;20078;-43
2021/12/11 12:09:53;;;;;;;18.80;12.30;;;5.30;99.90;;;;;;5041188;28;20419;-43
2021/12/11 12:12:22;;;;;;;19.77;12.45;;;5.40;99.90;;;;;;5028914;28;20029;-44
2021/12/11 12:14:49;;;;;;;25.48;13.23;;;5.40;99.90;;;;;;5039756;28;20032;-43
2021/12/11 12:17:19;;;;;;;22.23;13.05;;;5.40;99.90;;;;;;5029065;28;20029;-43
2021/12/11 12:19:46;;;;;;;25.27;12.45;;;5.40;99.90;;;;;;5037011;28;20041;-42
2021/12/11 12:22:14;;;;;;;18.67;12.05;;;5.40;99.90;;;;;;5031464;28;20048;-42
2021/12/11 12:24:41;;;;;;;20.90;12.77;;;5.40;99.90;;;;;;5035046;28;20056;-44
2021/12/11 12:27:10;;;;;;;17.10;11.75;;;5.40;99.90;;;;;;5033609;28;20029;-44
2021/12/11 12:29:37;;;;;;;16.10;11.05;;;5.50;99.90;;;;;;5032935;28;20434;-44
2021/12/11 12:32:13;;;;;;;17.45;12.80;;;5.40;99.90;;;;;;5034739;28;20078;-44
2021/12/11 12:34:39;;;;;;;23.58;16.02;;;5.40;99.90;;;;;;5032484;28;20029;-43
2021/12/11 12:37:07;;;;;;;23.92;15.00;;;5.40;99.90;;;;;;5019108;28;20406;-42
2021/12/11 12:39:38;;;;;;;20.50;13.98;;;5.40;99.90;;;;;;5015320;28;20370;-43
2021/12/11 12:42:21;;;;;;;18.33;12.70;;;5.50;99.90;;;;;;5037902;28;20381;-43
2021/12/11 12:44:53;;;;;;;22.40;15.13;;;5.50;99.90;;;;;;5030537;28;20025;-43
2021/12/11 12:47:24;;;;;;;19.90;13.90;;;5.50;99.90;;;;;;5036710;28;20032;-43
2021/12/11 12:49:53;;;;;;;24.83;15.90;;;5.50;99.90;;;;;;5029317;28;20771;-44
2021/12/11 12:52:44;;;;;;;23.80;15.05;;;5.60;99.90;;;;;;5038067;28;20481;-43
2021/12/11 12:55:16;;;;;;;18.17;13.57;;;5.60;99.90;;;;;;5038118;28;20119;-43
2021/12/11 12:57:47;;;;;;;21.23;14.25;;;5.70;99.90;;;;;;5038776;28;20794;-42
2021/12/11 13:00:23;;;;;;;22.48;13.70;;;5.70;99.90;;;;;;5045316;28;20082;-44
2021/12/11 13:02:53;;;;;;;19.48;12.98;;;5.80;99.90;;;;;;5038523;28;20025;-42
2021/12/11 13:05:24;;;;;;;17.77;12.27;;;5.80;99.90;;;;;;5046151;28;20024;-43
2021/12/11 13:07:56;;;;;;;17.83;12.05;;;5.80;99.90;;;;;;5025802;28;20028;-43